Time;durP1;ratioP1;P1;durP2;ratioP2;P2;SDS_P1;SDS_P2;PMS_P1;PMS_P2;Temp;Humidity;BMP_temperature;BMP_pressure;BME280_temperature;BME280_humidity;BME280_pressure;Samples;Min_cycle;Max_cycle;Signal;HPM_P1;HPM_P2
2023/05/21 00:00:39;;;;;;;4.22;2.22;;;;;;;18.19;47.13;101743.16;6191768;23;20627;-65
2023/05/21 00:03:12;;;;;;;4.38;2.40;;;;;;;18.18;47.43;101737.97;6190840;23;20096;-66
2023/05/21 00:05:43;;;;;;;8.10;2.33;;;;;;;18.15;47.46;101736.56;6192143;23;20536;-65
2023/05/21 00:08:11;;;;;;;3.58;2.70;;;;;;;18.14;47.53;101745.81;6192944;23;20032;-65
2023/05/21 00:10:38;;;;;;;4.60;2.60;;;;;;;18.12;47.53;101730.81;6192458;23;20029;-65
2023/05/21 00:13:07;;;;;;;4.43;2.20;;;;;;;18.12;47.48;101733.53;6191088;23;20083;-65
2023/05/21 00:15:35;;;;;;;4.90;3.05;;;;;;;18.11;47.37;101743.59;6190846;23;20036;-65
2023/05/21 00:18:03;;;;;;;6.13;2.90;;;;;;;18.08;47.60;101730.50;6190125;23;20425;-65
2023/05/21 00:20:32;;;;;;;4.20;2.60;;;;;;;18.07;47.85;101725.31;6190326;23;20103;-65
2023/05/21 00:23:02;;;;;;;5.00;2.63;;;;;;;18.02;47.63;101726.03;6189637;23;20029;-65
2023/05/21 00:25:30;;;;;;;3.22;2.35;;;;;;;18.03;47.63;101733.13;6190820;23;20025;-65
2023/05/21 00:27:58;;;;;;;4.65;2.53;;;;;;;18.02;47.88;101720.59;6190459;23;20039;-65
2023/05/21 00:30:26;;;;;;;4.07;2.70;;;;;;;18.01;47.95;101715.41;6190479;23;20025;-65
2023/05/21 00:32:53;;;;;;;5.93;2.72;;;;;;;17.99;47.77;101720.28;6189819;23;20029;-65
2023/05/21 00:35:21;;;;;;;4.63;2.45;;;;;;;17.96;47.94;101718.88;6190200;23;20120;-65
2023/05/21 00:37:50;;;;;;;3.90;2.20;;;;;;;17.95;48.05;101719.13;6190459;23;20052;-65
2023/05/21 00:40:20;;;;;;;4.03;2.53;;;;;;;17.93;47.93;101718.56;6190626;23;20152;-65
2023/05/21 00:42:48;;;;;;;4.97;2.60;;;;;;;17.91;48.12;101718.81;6190649;23;20079;-65
2023/05/21 00:45:16;;;;;;;4.60;2.70;;;;;;;17.91;48.28;101718.00;6190430;23;20029;-65
2023/05/21 00:47:47;;;;;;;4.05;2.10;;;;;;;17.88;48.10;101720.13;6189207;23;20044;-65
2023/05/21 00:50:16;;;;;;;5.20;3.13;;;;;;;17.86;48.29;101721.47;6190692;23;20055;-65
2023/05/21 00:52:44;;;;;;;3.47;2.50;;;;;;;17.85;48.33;101719.81;6189500;23;20049;-65
2023/05/21 00:55:12;;;;;;;3.78;2.05;;;;;;;17.83;48.42;101719.22;6190909;23;21107;-65
2023/05/21 00:57:41;;;;;;;3.55;2.15;;;;;;;17.80;48.46;101720.56;6189991;23;20017;-64
2023/05/21 01:00:10;;;;;;;7.03;2.35;;;;;;;17.79;48.56;101712.66;6192509;23;20052;-63
2023/05/21 01:02:38;;;;;;;3.58;2.22;;;;;;;17.78;48.58;101713.72;6191789;23;20025;-65
2023/05/21 01:05:07;;;;;;;4.10;2.22;;;;;;;17.76;48.70;101713.97;6191071;23;20029;-64
2023/05/21 01:07:37;;;;;;;2.90;2.42;;;;;;;17.69;48.62;101705.16;6188880;23;20025;-64
2023/05/21 01:10:08;;;;;;;6.32;2.78;;;;;;;17.73;48.76;101716.34;6191241;23;20025;-64
2023/05/21 01:12:39;;;;;;;4.93;3.00;;;;;;;17.72;48.75;101715.53;6190534;23;20052;-64
2023/05/21 01:15:10;;;;;;;6.78;2.70;;;;;;;17.71;48.81;101715.78;6190213;23;20029;-64
2023/05/21 01:17:38;;;;;;;5.25;2.50;;;;;;;17.69;48.81;101716.03;6191779;23;20299;-64
2023/05/21 01:20:09;;;;;;;3.83;2.60;;;;;;;17.67;48.82;101711.91;6191781;23;20033;-64
2023/05/21 01:22:43;;;;;;;5.70;2.88;;;;;;;17.66;49.00;101710.25;6190569;23;20029;-65
2023/05/21 01:25:13;;;;;;;4.00;2.20;;;;;;;17.65;48.93;101712.13;6190878;23;20025;-65
2023/05/21 01:27:41;;;;;;;6.03;2.28;;;;;;;17.64;48.92;101709.66;6190409;23;20025;-64
2023/05/21 01:30:10;;;;;;;6.35;3.03;;;;;;;17.62;48.98;101704.47;6190050;23;20524;-64
2023/05/21 01:32:45;;;;;;;3.80;2.80;;;;;;;17.60;49.09;101706.59;6189659;23;20025;-65
2023/05/21 01:35:17;;;;;;;6.50;2.28;;;;;;;17.58;49.31;101706.03;6190211;23;20025;-64
2023/05/21 01:37:49;;;;;;;3.45;2.55;;;;;;;17.58;49.26;101708.75;6189580;23;20028;-64
2023/05/21 01:40:26;;;;;;;7.32;3.33;;;;;;;17.56;49.45;101702.75;6189764;23;20028;-65
2023/05/21 01:42:54;;;;;;;5.20;3.00;;;;;;;17.54;49.46;101702.97;6189164;23;20063;-65
2023/05/21 01:45:23;;;;;;;5.20;2.95;;;;;;;17.53;49.46;101704.06;6191488;23;20029;-64
2023/05/21 01:47:54;;;;;;;4.60;2.75;;;;;;;17.52;49.50;101704.31;6191284;23;20025;-64
2023/05/21 01:50:24;;;;;;;6.80;3.50;;;;;;;17.51;49.70;101710.81;6189878;23;20036;-63
2023/05/21 01:52:55;;;;;;;4.85;3.15;;;;;;;17.47;49.49;101702.31;6190059;23;20031;-64
2023/05/21 01:55:24;;;;;;;7.57;3.65;;;;;;;17.47;49.54;101704.22;6189262;23;20033;-63
2023/05/21 01:57:52;;;;;;;5.82;3.30;;;;;;;17.47;49.60;101704.22;6189707;23;20052;-66
2023/05/21 02:00:21;;;;;;;8.32;3.45;;;;;;;17.44;49.74;101693.84;6189991;23;20040;-64
2023/05/21 02:02:49;;;;;;;5.20;3.22;;;;;;;17.44;49.80;101688.41;6188725;23;20205;-64
2023/05/21 02:05:17;;;;;;;5.63;3.58;;;;;;;17.42;49.76;101696.81;6189784;23;20025;-64
2023/05/21 02:07:46;;;;;;;5.95;3.78;;;;;;;17.41;49.90;101692.44;6189459;23;20021;-64
2023/05/21 02:10:14;;;;;;;5.07;3.40;;;;;;;17.39;49.91;101688.31;6190057;23;20586;-64
2023/05/21 02:12:43;;;;;;;9.75;3.58;;;;;;;17.37;49.78;101694.00;6189530;23;20075;-63
2023/05/21 02:15:13;;;;;;;7.85;3.38;;;;;;;17.36;50.08;101692.34;6190626;23;20033;-64
2023/05/21 02:17:41;;;;;;;4.30;3.13;;;;;;;17.35;50.15;101684.44;6189660;23;20106;-64
2023/05/21 02:20:10;;;;;;;5.63;3.53;;;;;;;17.33;50.17;101689.34;6190366;23;20029;-63
2023/05/21 02:22:39;;;;;;;6.50;3.20;;;;;;;17.31;50.23;101692.31;6190298;23;20029;-63
2023/05/21 02:25:08;;;;;;;5.85;3.53;;;;;;;17.28;50.12;101692.78;6191459;23;20363;-64
2023/05/21 02:27:37;;;;;;;4.60;2.80;;;;;;;17.28;50.15;101689.25;6190427;23;20021;-64
2023/05/21 02:30:08;;;;;;;4.25;3.13;;;;;;;17.27;50.19;101691.16;6190600;23;20024;-62
2023/05/21 02:32:38;;;;;;;4.72;2.83;;;;;;;17.25;50.21;101690.56;6190739;23;20451;-64
2023/05/21 02:35:06;;;;;;;7.10;2.85;;;;;;;17.24;50.22;101683.50;6191202;23;20352;-66
2023/05/21 02:37:35;;;;;;;7.22;2.75;;;;;;;17.22;50.29;101694.59;6190131;23;20021;-65
2023/05/21 02:40:04;;;;;;;8.57;3.17;;;;;;;17.20;50.30;101690.47;6191604;23;20025;-65
2023/05/21 02:42:32;;;;;;;4.63;2.60;;;;;;;17.19;50.36;101692.38;6191196;23;20084;-65
2023/05/21 02:45:00;;;;;;;5.95;3.38;;;;;;;17.17;50.49;101685.53;6191053;23;20028;-64
2023/05/21 02:47:29;;;;;;;6.70;2.80;;;;;;;17.15;50.47;101680.34;6191000;23;20052;-65
2023/05/21 02:49:59;;;;;;;5.22;2.90;;;;;;;17.15;50.52;101682.25;6189173;23;20033;-63
2023/05/21 02:52:27;;;;;;;4.65;2.80;;;;;;;17.12;50.75;101675.41;6189421;23;20350;-65
2023/05/21 02:54:55;;;;;;;5.72;3.03;;;;;;;17.10;50.71;101665.84;6191130;23;20116;-65
2023/05/21 02:57:23;;;;;;;5.68;2.83;;;;;;;17.09;50.77;101675.91;6191293;23;20330;-65
2023/05/21 02:59:50;;;;;;;3.22;2.53;;;;;;;17.08;50.70;101673.44;6191600;23;20033;-65
2023/05/21 03:02:18;;;;;;;4.88;3.05;;;;;;;17.08;50.71;101670.72;6190980;23;20024;-63
2023/05/21 03:04:49;;;;;;;7.32;2.90;;;;;;;17.06;50.99;101662.81;6191659;23;20029;-65
2023/05/21 03:07:18;;;;;;;5.15;2.60;;;;;;;17.05;50.62;101660.34;6190211;23;20039;-63
2023/05/21 03:09:46;;;;;;;3.80;2.70;;;;;;;17.04;50.78;101662.22;6190837;23;20036;-64
2023/05/21 03:12:14;;;;;;;5.57;3.15;;;;;;;17.03;51.03;101657.88;6191567;23;20066;-64
2023/05/21 03:14:42;;;;;;;5.82;2.70;;;;;;;17.03;50.96;101654.31;6191944;23;20029;-63
2023/05/21 03:17:12;;;;;;;6.80;3.42;;;;;;;17.01;51.21;101654.56;6190170;23;20025;-65
2023/05/21 03:19:41;;;;;;;4.35;3.05;;;;;;;17.01;51.00;101653.75;6191918;23;20029;-64
2023/05/21 03:22:11;;;;;;;4.22;2.95;;;;;;;16.99;51.30;101656.72;6190955;23;20029;-64
2023/05/21 03:24:40;;;;;;;6.35;3.10;;;;;;;16.98;51.20;101660.50;6193326;23;20066;-65
2023/05/21 03:27:08;;;;;;;4.82;2.85;;;;;;;16.97;51.26;101655.31;6192854;23;20059;-65
2023/05/21 03:29:36;;;;;;;5.90;3.38;;;;;;;16.96;51.25;101651.75;6192471;23;20029;-64
2023/05/21 03:32:05;;;;;;;3.58;2.60;;;;;;;16.96;51.08;101659.09;6192049;23;20035;-64
2023/05/21 03:34:34;;;;;;;4.28;2.45;;;;;;;16.87;51.27;101645.91;6192279;23;20026;-64
2023/05/21 03:37:02;;;;;;;3.92;2.70;;;;;;;16.94;51.06;101666.66;6190964;23;20080;-63
2023/05/21 03:39:31;;;;;;;5.22;3.05;;;;;;;16.94;51.35;101663.94;6192895;23;20025;-65
2023/05/21 03:41:59;;;;;;;6.40;2.38;;;;;;;16.91;51.46;101657.94;6191287;23;20083;-65
2023/05/21 03:44:26;;;;;;;4.57;2.80;;;;;;;16.81;51.15;101638.72;6191700;23;20021;-64
2023/05/21 03:46:54;;;;;;;4.50;2.72;;;;;;;16.91;51.52;101659.81;6190440;23;20028;-64
2023/05/21 03:49:22;;;;;;;4.38;2.72;;;;;;;16.89;51.66;101656.53;6192053;23;20024;-65
2023/05/21 03:51:50;;;;;;;5.60;2.88;;;;;;;16.87;51.61;101655.94;6191460;23;20025;-63
2023/05/21 03:54:18;;;;;;;5.30;3.00;;;;;;;16.86;51.56;101648.88;6192695;23;20032;-64
2023/05/21 03:56:48;;;;;;;5.38;2.95;;;;;;;16.83;51.78;101649.34;6192545;23;20033;-64
2023/05/21 03:59:15;;;;;;;5.13;3.05;;;;;;;16.82;51.89;101653.97;6193599;23;20025;-65
2023/05/21 04:01:44;;;;;;;5.88;3.28;;;;;;;16.82;51.96;101656.69;6191982;23;20059;-64
2023/05/21 04:04:11;;;;;;;5.18;2.95;;;;;;;16.80;51.95;101653.38;6191864;23;20028;-65
2023/05/21 04:06:41;;;;;;;4.10;2.90;;;;;;;16.78;51.99;101650.09;6190726;23;20671;-65
2023/05/21 04:09:08;;;;;;;4.78;2.70;;;;;;;16.76;52.18;101649.50;6185856;23;20035;-66
2023/05/21 04:11:36;;;;;;;4.55;3.00;;;;;;;16.75;52.20;101657.88;6187638;23;20048;-65
2023/05/21 04:14:06;;;;;;;5.18;2.85;;;;;;;16.75;52.26;101655.19;6188648;23;20985;-65
2023/05/21 04:16:34;;;;;;;6.78;3.10;;;;;;;16.73;51.89;101657.31;6187335;23;20486;-65
2023/05/21 04:19:02;;;;;;;5.15;2.80;;;;;;;16.73;52.06;101665.44;6187114;23;20032;-64
2023/05/21 04:21:30;;;;;;;4.50;2.88;;;;;;;16.71;52.54;101656.72;6186387;23;20029;-65
2023/05/21 04:23:59;;;;;;;4.82;2.55;;;;;;;16.68;52.50;101659.94;6188348;23;20346;-65
2023/05/21 04:26:28;;;;;;;4.35;2.85;;;;;;;16.69;52.37;101662.41;6187457;23;20029;-64
2023/05/21 04:28:56;;;;;;;4.25;2.75;;;;;;;16.68;52.48;101665.34;6188479;23;20036;-65
2023/05/21 04:31:25;;;;;;;4.45;2.83;;;;;;;16.67;52.53;101667.25;6186162;23;20248;-65
2023/05/21 04:33:53;;;;;;;4.32;2.92;;;;;;;16.66;52.63;101670.19;6188323;23;20029;-64
2023/05/21 04:36:21;;;;;;;3.50;2.33;;;;;;;16.65;52.75;101672.09;6187008;23;20419;-64
2023/05/21 04:38:48;;;;;;;3.72;2.25;;;;;;;16.64;52.87;101667.69;6186502;23;20025;-65
2023/05/21 04:41:17;;;;;;;4.60;2.97;;;;;;;16.63;52.91;101668.75;6186822;23;20032;-65
2023/05/21 04:43:45;;;;;;;6.25;2.95;;;;;;;16.63;52.96;101676.09;6186434;23;20048;-64
2023/05/21 04:46:13;;;;;;;5.18;3.13;;;;;;;16.60;52.92;101677.38;6185168;23;20028;-64
2023/05/21 04:48:43;;;;;;;3.83;3.00;;;;;;;16.60;52.86;101680.09;6187851;23;20088;-66
2023/05/21 04:51:11;;;;;;;5.47;3.03;;;;;;;16.59;53.02;101673.84;6184206;23;20040;-64
2023/05/21 04:53:39;;;;;;;6.40;2.70;;;;;;;16.59;52.98;101679.28;6187408;23;20033;-63
2023/05/21 04:56:08;;;;;;;4.70;2.97;;;;;;;16.59;53.09;101673.03;6185477;23;20033;-66
2023/05/21 04:58:39;;;;;;;7.82;3.25;;;;;;;16.57;53.12;101675.97;6186572;23;20094;-64
2023/05/21 05:01:07;;;;;;;5.30;3.40;;;;;;;16.54;53.44;101670.22;6185418;23;20056;-64
2023/05/21 05:03:35;;;;;;;4.68;3.40;;;;;;;16.57;53.37;101670.56;6186491;23;20128;-66
2023/05/21 05:06:06;;;;;;;4.82;3.30;;;;;;;16.56;53.47;101665.38;6184371;23;20456;-63
2023/05/21 05:08:34;;;;;;;3.88;2.92;;;;;;;16.55;53.37;101663.72;6186097;23;20035;-65
2023/05/21 05:11:02;;;;;;;6.43;3.38;;;;;;;16.54;53.52;101673.75;6186637;23;20024;-64
2023/05/21 05:13:30;;;;;;;6.68;3.30;;;;;;;16.54;53.83;101670.22;6187625;23;20113;-65
2023/05/21 05:15:59;;;;;;;4.90;3.30;;;;;;;16.53;53.78;101672.09;6186288;23;20160;-64
2023/05/21 05:18:27;;;;;;;6.65;3.30;;;;;;;16.52;53.83;101667.75;6187026;23;20096;-64
2023/05/21 05:20:55;;;;;;;4.72;3.22;;;;;;;16.49;53.92;101657.38;6185564;23;20056;-64
2023/05/21 05:23:24;;;;;;;5.25;3.72;;;;;;;16.50;54.22;101664.44;6186648;23;20109;-64
2023/05/21 05:25:52;;;;;;;5.28;3.13;;;;;;;16.49;54.12;101661.97;6186207;23;20032;-64
2023/05/21 05:28:20;;;;;;;4.80;3.40;;;;;;;16.47;53.87;101654.06;6186730;23;20025;-64
2023/05/21 05:30:47;;;;;;;6.03;3.40;;;;;;;16.48;54.14;101655.72;6186107;23;20028;-64
2023/05/21 05:33:15;;;;;;;4.45;3.28;;;;;;;16.48;54.14;101655.72;6186802;23;20040;-65
2023/05/21 05:35:43;;;;;;;5.13;2.92;;;;;;;16.48;54.11;101655.72;6186380;23;20553;-64
2023/05/21 05:38:12;;;;;;;4.22;3.00;;;;;;;16.50;53.77;101660.91;6186632;23;20048;-63
2023/05/21 05:40:41;;;;;;;6.03;3.15;;;;;;;16.49;53.95;101662.78;6186978;23;20025;-67
2023/05/21 05:43:09;;;;;;;6.18;3.47;;;;;;;16.49;53.96;101670.13;6186824;23;20090;-64
2023/05/21 05:45:37;;;;;;;4.72;2.97;;;;;;;16.49;53.65;101667.41;6186746;23;20068;-65
2023/05/21 05:48:06;;;;;;;6.45;3.30;;;;;;;16.49;53.79;101668.22;6185838;23;20060;-65
2023/05/21 05:50:34;;;;;;;4.57;3.53;;;;;;;16.49;53.97;101673.66;6185043;23;20103;-61
2023/05/21 05:53:01;;;;;;;5.38;3.63;;;;;;;16.49;53.62;101672.81;6186562;23;20592;-63
2023/05/21 05:55:30;;;;;;;6.13;3.67;;;;;;;16.48;53.97;101666.56;6187530;23;20072;-63
2023/05/21 05:57:59;;;;;;;7.20;3.33;;;;;;;16.48;54.00;101668.47;6188887;23;20060;-64
2023/05/21 06:00:27;;;;;;;4.40;3.10;;;;;;;16.47;53.94;101656.78;6188269;23;20029;-61
2023/05/21 06:02:54;;;;;;;5.35;3.55;;;;;;;16.47;54.06;101670.34;6188550;23;20284;-63
2023/05/21 06:05:22;;;;;;;5.30;3.25;;;;;;;16.47;54.30;101664.91;6187724;23;20051;-63
2023/05/21 06:07:50;;;;;;;7.30;3.40;;;;;;;16.46;54.19;101666.00;6187729;23;20409;-63
2023/05/21 06:10:19;;;;;;;5.60;3.33;;;;;;;16.47;54.53;101669.53;6188913;23;20029;-65
2023/05/21 06:12:47;;;;;;;7.22;2.97;;;;;;;16.46;54.11;101663.28;6188442;23;20025;-66
2023/05/21 06:15:18;;;;;;;6.63;3.38;;;;;;;16.46;54.86;101663.28;6184781;23;20056;-60
2023/05/21 06:17:45;;;;;;;5.35;4.00;;;;;;;16.41;55.26;101662.34;6186833;23;20098;-64
2023/05/21 06:20:13;;;;;;;8.40;4.53;;;;;;;16.39;55.24;101657.16;6183988;23;20196;-64
2023/05/21 06:22:41;;;;;;;5.85;3.83;;;;;;;16.40;55.24;101666.13;6184579;23;20079;-64
2023/05/21 06:25:10;;;;;;;9.00;3.88;;;;;;;16.42;54.98;101672.97;6184688;23;20458;-63
2023/05/21 06:27:38;;;;;;;5.25;3.28;;;;;;;16.44;54.86;101670.00;6182608;23;20028;-64
2023/05/21 06:30:07;;;;;;;4.63;3.25;;;;;;;16.45;54.51;101669.78;6186540;23;20025;-64
2023/05/21 06:32:36;;;;;;;5.78;3.35;;;;;;;16.48;54.60;101660.31;6183486;23;20025;-68
2023/05/21 06:35:05;;;;;;;7.80;3.80;;;;;;;16.48;54.40;101668.47;6185477;23;20032;-64
2023/05/21 06:37:33;;;;;;;5.55;3.65;;;;;;;16.49;54.65;101676.34;6185675;23;20420;-65
2023/05/21 06:40:01;;;;;;;6.72;3.47;;;;;;;16.48;54.67;101677.44;6185226;23;20025;-65
2023/05/21 06:42:29;;;;;;;5.32;3.22;;;;;;;16.49;54.76;101684.50;6184386;23;20060;-65
2023/05/21 06:44:56;;;;;;;5.38;3.25;;;;;;;16.51;55.11;101676.13;6185106;23;20056;-64
2023/05/21 06:47:24;;;;;;;5.85;3.53;;;;;;;16.50;55.05;101664.44;6187679;23;20371;-66
2023/05/21 06:49:53;;;;;;;6.60;4.00;;;;;;;16.52;54.92;101672.34;6186825;23;20108;-64
2023/05/21 06:52:21;;;;;;;6.00;3.70;;;;;;;16.52;54.78;101662.31;6187124;23;21158;-65
2023/05/21 06:54:49;;;;;;;7.65;3.63;;;;;;;16.44;54.74;101649.13;6186567;23;20036;-63
2023/05/21 06:57:17;;;;;;;5.68;3.58;;;;;;;16.55;54.81;101667.25;6187348;23;20052;-63
2023/05/21 06:59:44;;;;;;;6.88;3.72;;;;;;;16.56;54.85;101668.06;6188769;23;20032;-63
2023/05/21 07:02:12;;;;;;;5.10;3.28;;;;;;;16.58;54.97;101658.63;6188138;23;20027;-63
2023/05/21 07:04:40;;;;;;;9.52;3.70;;;;;;;16.60;54.82;101658.38;6188225;23;20025;-63
2023/05/21 07:07:09;;;;;;;4.90;3.30;;;;;;;16.61;54.90;101660.03;6187335;23;20083;-64
2023/05/21 07:09:37;;;;;;;6.63;4.20;;;;;;;16.63;54.83;101655.19;6189252;23;20043;-64
2023/05/21 07:12:05;;;;;;;4.97;3.47;;;;;;;16.65;54.79;101655.81;6189495;23;20052;-63
2023/05/21 07:14:33;;;;;;;7.18;3.50;;;;;;;16.66;54.91;101651.19;6189752;23;20025;-67
2023/05/21 07:17:01;;;;;;;6.07;3.53;;;;;;;16.67;54.78;101653.66;6189524;23;20028;-66
2023/05/21 07:19:29;;;;;;;6.47;3.35;;;;;;;16.69;54.78;101651.53;6188182;23;20021;-65
2023/05/21 07:21:57;;;;;;;5.50;3.33;;;;;;;16.71;54.83;101643.16;6189406;23;20029;-63
2023/05/21 07:24:26;;;;;;;5.15;3.63;;;;;;;16.72;54.77;101647.50;6190236;23;20406;-63
2023/05/21 07:26:54;;;;;;;8.13;3.58;;;;;;;16.72;54.88;101651.06;6187992;23;20537;-62
2023/05/21 07:29:22;;;;;;;5.05;3.40;;;;;;;16.73;54.98;101651.88;6187421;23;20029;-62
2023/05/21 07:31:50;;;;;;;4.70;3.78;;;;;;;16.74;55.06;101642.66;6187118;23;20029;-64
2023/05/21 07:34:18;;;;;;;7.43;4.20;;;;;;;16.75;55.24;101642.44;6187485;23;20036;-63
2023/05/21 07:36:45;;;;;;;8.10;3.60;;;;;;;16.76;55.42;101646.78;6189228;23;20079;-64
2023/05/21 07:39:13;;;;;;;7.97;4.03;;;;;;;16.78;55.28;101643.84;6190220;23;20028;-63
2023/05/21 07:41:42;;;;;;;5.53;3.65;;;;;;;16.78;55.22;101650.09;6190321;23;20036;-63
2023/05/21 07:44:10;;;;;;;5.80;3.80;;;;;;;16.81;55.14;101643.34;6188846;23;20091;-63
2023/05/21 07:46:38;;;;;;;5.28;3.15;;;;;;;16.82;55.12;101642.28;6189768;23;20096;-62
2023/05/21 07:49:06;;;;;;;7.20;3.90;;;;;;;16.84;55.87;101637.44;6189848;23;20324;-64
2023/05/21 07:51:34;;;;;;;5.18;4.07;;;;;;;16.85;55.79;101645.31;6188506;23;20025;-64
2023/05/21 07:54:02;;;;;;;6.43;4.43;;;;;;;16.86;55.80;101640.72;6190561;23;20029;-63
2023/05/21 07:56:31;;;;;;;5.90;3.88;;;;;;;16.88;55.89;101644.84;6188825;23;20392;-63
2023/05/21 07:59:00;;;;;;;6.20;4.47;;;;;;;16.89;55.68;101641.06;6189188;23;20025;-63
2023/05/21 08:01:28;;;;;;;11.32;4.07;;;;;;;16.90;55.71;101647.31;6188550;23;20509;-64
2023/05/21 08:03:59;;;;;;;5.60;3.97;;;;;;;16.92;55.69;101648.72;6188657;23;20033;-66
2023/05/21 08:06:27;;;;;;;6.13;4.05;;;;;;;16.93;55.88;101646.81;6188227;23;20029;-62
2023/05/21 08:08:56;;;;;;;8.48;3.65;;;;;;;16.93;56.05;101633.25;6189593;23;20052;-64
2023/05/21 08:11:23;;;;;;;6.15;4.03;;;;;;;16.95;55.99;101633.81;6188542;23;20092;-64
2023/05/21 08:13:51;;;;;;;5.70;3.83;;;;;;;16.98;55.95;101637.94;6189546;23;20047;-63
2023/05/21 08:16:22;;;;;;;8.65;3.53;;;;;;;16.98;55.95;101636.06;6186154;23;20032;-64
2023/05/21 08:18:50;;;;;;;6.55;4.40;;;;;;;17.01;56.01;101632.03;6189212;23;20028;-64
2023/05/21 08:21:18;;;;;;;7.10;4.45;;;;;;;17.02;56.03;101631.78;6188787;23;20128;-64
2023/05/21 08:23:46;;;;;;;6.05;3.80;;;;;;;17.05;56.16;101625.03;6193374;23;20033;-64
2023/05/21 08:26:15;;;;;;;7.20;3.90;;;;;;;17.07;56.30;101623.72;6193519;23;20024;-64
2023/05/21 08:28:43;;;;;;;5.25;3.53;;;;;;;17.09;56.29;101613.44;6194864;23;20457;-63
2023/05/21 08:31:11;;;;;;;6.35;4.15;;;;;;;17.12;56.12;101629.22;6193111;23;20077;-63
2023/05/21 08:33:50;;;;;;;8.27;5.28;;;;;;;17.16;56.11;101632.28;6194622;23;20028;-63
2023/05/21 08:36:18;;;;;;;8.43;5.07;;;;;;;17.16;56.23;101621.41;6193575;23;20089;-63
2023/05/21 08:38:45;;;;;;;6.15;4.40;;;;;;;17.19;56.30;101627.19;6194587;23;20129;-63
2023/05/21 08:41:14;;;;;;;7.03;4.22;;;;;;;17.21;56.44;101618.78;6193703;23;20025;-63
2023/05/21 08:43:43;;;;;;;6.75;4.60;;;;;;;17.22;56.53;101613.09;6194073;23;20087;-64
2023/05/21 08:46:12;;;;;;;8.77;4.85;;;;;;;17.24;56.55;101610.97;6191439;23;20028;-63
2023/05/21 08:48:42;;;;;;;8.40;4.95;;;;;;;17.27;56.56;101617.78;6194513;23;20048;-63
2023/05/21 08:51:10;;;;;;;6.82;4.93;;;;;;;17.30;56.60;101619.19;6193039;23;20025;-64
2023/05/21 08:53:37;;;;;;;11.02;5.60;;;;;;;17.33;56.72;101615.97;6194037;23;20048;-64
2023/05/21 08:56:07;;;;;;;6.13;4.20;;;;;;;17.35;56.61;101619.25;6193818;23;20051;-63
2023/05/21 08:58:36;;;;;;;7.50;4.63;;;;;;;17.39;56.71;101617.66;6194713;23;20025;-63
2023/05/21 09:01:04;;;;;;;8.73;4.72;;;;;;;17.40;56.80;101617.44;6192646;23;20031;-63
2023/05/21 09:03:32;;;;;;;8.52;5.20;;;;;;;17.44;56.70;101610.41;6193782;23;20025;-63
2023/05/21 09:06:02;;;;;;;7.32;4.53;;;;;;;17.46;56.70;101604.75;6191736;23;20486;-62
2023/05/21 09:08:35;;;;;;;8.95;5.03;;;;;;;17.49;56.69;101606.97;6191926;23;20025;-64
2023/05/21 09:11:03;;;;;;;7.25;5.20;;;;;;;17.50;56.84;101612.16;6189674;23;20029;-64
2023/05/21 09:13:33;;;;;;;6.88;4.78;;;;;;;17.54;56.91;101605.13;6190105;23;20029;-64
2023/05/21 09:16:02;;;;;;;6.35;4.80;;;;;;;17.54;56.89;101605.13;6186266;23;20053;-64
2023/05/21 09:18:30;;;;;;;6.63;4.00;;;;;;;17.57;56.89;101607.34;6189749;23;20029;-64
2023/05/21 09:20:59;;;;;;;6.65;5.18;;;;;;;17.60;56.84;101616.91;6188921;23;20032;-64
2023/05/21 09:23:28;;;;;;;9.43;4.90;;;;;;;17.61;57.14;101609.56;6190015;23;20025;-64
2023/05/21 09:25:57;;;;;;;6.72;5.20;;;;;;;17.61;57.28;101613.13;6189041;23;20024;-64
2023/05/21 09:28:25;;;;;;;9.38;5.18;;;;;;;17.63;57.28;101610.97;6190272;23;20033;-64
2023/05/21 09:30:53;;;;;;;10.05;5.78;;;;;;;17.65;57.23;101611.53;6188027;23;20084;-64
2023/05/21 09:33:25;;;;;;;8.70;5.28;;;;;;;17.66;57.37;101613.22;6190605;23;20039;-64
2023/05/21 09:35:53;;;;;;;7.60;5.13;;;;;;;17.68;57.24;101611.06;6190021;23;20025;-64
2023/05/21 09:38:22;;;;;;;7.00;5.18;;;;;;;17.70;57.33;101608.94;6191903;23;20036;-63
2023/05/21 09:40:54;;;;;;;8.10;5.57;;;;;;;17.72;57.40;101614.94;6191597;23;20342;-64
2023/05/21 09:43:22;;;;;;;8.10;5.53;;;;;;;17.73;57.28;101604.88;6192993;23;20052;-63
2023/05/21 09:45:52;;;;;;;7.13;4.57;;;;;;;17.66;57.42;101591.47;6190636;23;20025;-63
2023/05/21 09:48:33;;;;;;;10.93;5.80;;;;;;;17.74;57.25;101590.22;6191434;23;20028;-63
2023/05/21 09:51:11;;;;;;;7.65;5.55;;;;;;;17.79;57.38;101599.25;6191055;23;20120;-63
2023/05/21 09:53:50;;;;;;;7.85;5.43;;;;;;;17.80;57.45;101591.94;6191357;23;20537;-63
2023/05/21 09:56:24;;;;;;;8.35;4.60;;;;;;;17.83;57.68;101586.81;6191908;23;20025;-63
2023/05/21 09:58:53;;;;;;;6.20;4.80;;;;;;;17.87;57.59;101589.84;6190997;23;20134;-63
2023/05/21 10:01:21;;;;;;;9.82;4.93;;;;;;;17.91;57.69;101592.88;6191424;23;20548;-65
2023/05/21 10:03:53;;;;;;;8.07;4.60;;;;;;;17.89;57.48;101580.38;6190709;23;20355;-63
2023/05/21 10:06:24;;;;;;;10.05;5.13;;;;;;;17.93;57.64;101586.13;6190185;23;20092;-62
2023/05/21 10:08:54;;;;;;;8.05;5.95;;;;;;;17.96;57.62;101582.06;6193121;23;20021;-63
2023/05/21 10:11:27;;;;;;;11.10;6.97;;;;;;;17.98;57.75;101579.91;6192012;23;20025;-62
2023/05/21 10:14:01;;;;;;;8.38;5.28;;;;;;;17.98;57.75;101569.88;6189545;23;20036;-62
2023/05/21 10:16:32;;;;;;;8.60;6.35;;;;;;;18.03;57.62;101569.09;6189120;23;20024;-62
2023/05/21 10:19:00;;;;;;;9.27;7.05;;;;;;;18.05;57.93;101573.22;6192283;23;20025;-62
2023/05/21 10:21:28;;;;;;;7.53;5.82;;;;;;;18.09;57.78;101562.66;6194246;23;20033;-61
2023/05/21 10:23:57;;;;;;;9.30;5.97;;;;;;;18.13;57.83;101569.22;6193903;23;20072;-61
2023/05/21 10:26:27;;;;;;;6.95;5.30;;;;;;;18.15;58.08;101565.19;6193420;23;20029;-62
2023/05/21 10:28:58;;;;;;;6.43;5.07;;;;;;;18.21;58.41;101568.78;6191805;23;20021;-60
2023/05/21 10:31:27;;;;;;;8.40;6.43;;;;;;;18.22;58.23;101559.53;6192511;23;20095;-63
2023/05/21 10:33:55;;;;;;;11.68;6.80;;;;;;;18.30;57.87;101560.97;6193670;23;20025;-62
2023/05/21 10:36:24;;;;;;;10.38;6.32;;;;;;;18.32;58.08;101556.09;6192534;23;20021;-65
2023/05/21 10:38:53;;;;;;;11.18;7.15;;;;;;;18.35;57.92;101566.47;6190105;23;20029;-62
2023/05/21 10:41:23;;;;;;;13.10;7.30;;;;;;;18.40;58.22;101550.19;6191629;23;20029;-59
2023/05/21 10:44:02;;;;;;;9.38;6.95;;;;;;;18.50;58.39;101536.69;6190313;23;20521;-62
2023/05/21 10:46:56;;;;;;;7.95;5.82;;;;;;;18.57;57.88;101542.75;6190715;23;20439;-64
2023/05/21 10:49:38;;;;;;;10.85;6.90;;;;;;;18.63;58.29;101541.75;6192023;23;20047;-63
2023/05/21 10:52:14;;;;;;;10.00;6.45;;;;;;;18.67;58.19;101542.88;6192489;23;20032;-63
2023/05/21 10:54:56;;;;;;;11.48;5.78;;;;;;;18.71;57.97;101535.84;6192832;23;20525;-64
2023/05/21 10:57:44;;;;;;;9.93;7.57;;;;;;;18.76;58.13;101535.88;6192951;23;20028;-64
2023/05/21 11:00:15;;;;;;;12.63;8.43;;;;;;;18.77;57.90;101536.69;6192784;23;20076;-64
2023/05/21 11:02:44;;;;;;;9.07;6.90;;;;;;;18.83;57.79;101538.38;6193863;23;20025;-62
2023/05/21 11:05:12;;;;;;;11.32;8.40;;;;;;;18.88;58.05;101527.53;6193250;23;20025;-62
2023/05/21 11:07:56;;;;;;;9.70;7.72;;;;;;;18.90;58.09;101514.47;6195376;23;20025;-63
2023/05/21 11:10:31;;;;;;;14.98;7.47;;;;;;;18.94;57.97;101512.03;6194221;23;20059;-63
2023/05/21 11:13:06;;;;;;;12.52;7.53;;;;;;;18.93;57.75;101503.06;6194307;23;20048;-62
2023/05/21 11:16:06;;;;;;;13.50;8.50;;;;;;;19.05;57.37;101497.41;6192167;23;20128;-62
2023/05/21 11:18:59;;;;;;;10.05;7.75;;;;;;;19.06;57.90;101501.78;6194409;23;20417;-62
2023/05/21 11:21:29;;;;;;;12.43;9.38;;;;;;;19.07;57.79;101492.50;6194171;23;20052;-62
2023/05/21 11:24:02;;;;;;;15.45;8.07;;;;;;;19.12;57.43;101497.97;6195026;23;20481;-62
2023/05/21 11:27:03;;;;;;;9.75;7.78;;;;;;;19.15;57.80;101486.53;6193351;23;20041;-62
2023/05/21 11:29:55;;;;;;;11.73;7.72;;;;;;;19.22;57.19;101489.84;6193161;23;20138;-63
2023/05/21 11:32:24;;;;;;;10.88;7.93;;;;;;;19.28;57.53;101480.63;6194116;23;20052;-63
2023/05/21 11:34:52;;;;;;;11.80;7.88;;;;;;;19.34;57.90;101486.94;6193868;23;20087;-63